createdAt,value
2017-07-16T00:00:25.108Z,11.90
2017-07-16T00:02:55.545Z,11.67
2017-07-16T00:05:25.369Z,12.10
2017-07-16T00:07:55.745Z,11.00
2017-07-16T00:10:26.925Z,11.43
2017-07-16T00:12:57.225Z,12.33
2017-07-16T00:15:27.082Z,10.13
2017-07-16T00:17:57.359Z,10.53
2017-07-16T00:20:27.229Z,10.70
2017-07-16T00:22:57.492Z,11.00
2017-07-16T00:25:27.351Z,12.17
2017-07-16T00:27:57.625Z,11.37
2017-07-16T00:30:27.478Z,11.63
2017-07-16T00:32:57.330Z,10.87
2017-07-16T00:35:27.669Z,11.40
2017-07-16T00:37:57.513Z,10.40
2017-07-16T00:40:27.364Z,10.80
2017-07-16T00:42:57.525Z,11.30
2017-07-16T00:45:27.363Z,10.43
2017-07-16T00:47:57.234Z,10.37
2017-07-16T00:50:27.464Z,11.23
2017-07-16T00:52:57.317Z,11.07
2017-07-16T00:55:27.512Z,11.50
2017-07-16T00:57:57.344Z,11.50
2017-07-16T01:00:27.210Z,11.53
2017-07-16T01:02:57.425Z,10.23
2017-07-16T01:05:27.287Z,10.50
2017-07-16T01:07:57.483Z,11.37
2017-07-16T01:10:27.319Z,10.10
2017-07-16T01:12:57.205Z,10.47
2017-07-16T01:15:27.413Z,9.33
2017-07-16T01:17:57.268Z,9.37
2017-07-16T01:20:27.440Z,10.37
2017-07-16T01:22:57.311Z,9.10
2017-07-16T01:25:27.181Z,9.00
2017-07-16T01:27:57.388Z,8.80
2017-07-16T01:30:27.220Z,9.33
2017-07-16T01:32:57.629Z,9.00
2017-07-16T01:35:27.463Z,8.27
2017-07-16T01:37:57.761Z,7.97
2017-07-16T01:40:27.606Z,8.47
2017-07-16T01:42:57.999Z,8.30
2017-07-16T01:45:27.839Z,7.73
2017-07-16T01:47:58.131Z,7.60
2017-07-16T01:50:27.980Z,8.43
2017-07-16T01:52:58.167Z,7.97
2017-07-16T01:55:28.052Z,7.60
2017-07-16T01:57:58.249Z,6.80
2017-07-16T02:00:28.166Z,7.07
2017-07-16T02:02:58.397Z,7.17
2017-07-16T02:05:28.229Z,6.77
2017-07-16T02:07:58.571Z,7.40
2017-07-16T02:10:28.408Z,7.30
2017-07-16T02:12:58.625Z,7.00
2017-07-16T02:15:28.454Z,7.70
2017-07-16T02:17:58.317Z,7.80
2017-07-16T02:20:28.559Z,6.50
2017-07-16T02:22:58.392Z,5.83
2017-07-16T02:25:28.256Z,7.50
2017-07-16T02:27:58.478Z,6.57
2017-07-16T02:30:28.310Z,6.73
2017-07-16T02:32:58.513Z,6.80
2017-07-16T02:35:28.368Z,7.07
2017-07-16T02:37:58.219Z,6.87
2017-07-16T02:40:28.456Z,6.03
2017-07-16T02:42:58.296Z,6.30
2017-07-16T02:45:28.507Z,7.10
2017-07-16T02:47:58.357Z,5.90
2017-07-16T02:50:28.541Z,6.20
2017-07-16T02:52:58.402Z,6.80
2017-07-16T02:55:28.255Z,6.20
2017-07-16T02:57:58.474Z,6.10
2017-07-16T03:00:28.309Z,6.53
2017-07-16T03:02:58.609Z,7.07
2017-07-16T03:05:28.452Z,6.50
2017-07-16T03:07:58.310Z,6.57
2017-07-16T03:10:29.317Z,6.40
2017-07-16T03:12:59.162Z,6.03
2017-07-16T03:15:29.415Z,6.50
2017-07-16T03:17:59.244Z,6.20
2017-07-16T03:20:29.424Z,6.63
2017-07-16T03:22:59.251Z,6.17
2017-07-16T03:25:38.389Z,6.10
2017-07-16T03:28:08.208Z,5.83
2017-07-16T03:30:38.507Z,5.90
2017-07-16T03:33:08.324Z,6.30
2017-07-16T03:35:38.162Z,5.60
2017-07-16T03:38:08.364Z,6.03
2017-07-16T03:40:38.197Z,5.70
2017-07-16T03:43:08.498Z,5.77
2017-07-16T03:45:38.358Z,5.63
2017-07-16T03:48:08.202Z,6.30
2017-07-16T03:50:38.382Z,5.70
2017-07-16T03:53:08.228Z,5.73
2017-07-16T03:55:38.464Z,5.67
2017-07-16T03:58:08.327Z,6.20
2017-07-16T04:00:38.710Z,6.00
2017-07-16T04:03:08.757Z,6.00
2017-07-16T04:05:39.045Z,5.57
2017-07-16T04:08:08.897Z,5.20
2017-07-16T04:10:39.181Z,5.33
2017-07-16T04:13:09.021Z,5.00
2017-07-16T04:15:39.206Z,5.17
2017-07-16T04:18:09.031Z,5.50
2017-07-16T04:20:39.232Z,5.60
2017-07-16T04:23:09.075Z,4.97
2017-07-16T04:25:39.265Z,5.50
2017-07-16T04:28:09.114Z,5.23
2017-07-16T04:30:39.311Z,5.40
2017-07-16T04:33:09.200Z,5.67
2017-07-16T04:35:39.451Z,4.73
2017-07-16T04:38:09.295Z,4.93
2017-07-16T04:40:39.467Z,5.33
2017-07-16T04:43:09.300Z,4.80
2017-07-16T04:45:39.141Z,5.23
2017-07-16T04:48:09.427Z,4.33
2017-07-16T04:50:39.264Z,5.30
2017-07-16T04:53:09.446Z,4.70
2017-07-16T04:55:39.288Z,5.07
2017-07-16T04:58:09.498Z,4.10
2017-07-16T05:00:39.330Z,5.00
2017-07-16T05:03:09.182Z,5.07
2017-07-16T05:05:39.435Z,4.70
2017-07-16T05:08:09.260Z,4.60
2017-07-16T05:10:39.471Z,4.90
2017-07-16T05:13:09.320Z,4.90
2017-07-16T05:15:39.497Z,4.40
2017-07-16T05:18:09.328Z,4.10
2017-07-16T05:20:39.198Z,4.40
2017-07-16T05:23:09.450Z,4.87
2017-07-16T05:25:39.274Z,4.30
2017-07-16T05:28:09.483Z,4.00
2017-07-16T05:30:39.313Z,4.73
2017-07-16T05:33:09.157Z,4.60
2017-07-16T05:35:39.420Z,4.10
2017-07-16T05:38:09.241Z,4.37
2017-07-16T05:40:39.457Z,4.73
2017-07-16T05:43:09.304Z,4.40
2017-07-16T05:45:39.149Z,4.00
2017-07-16T05:48:09.371Z,3.90
2017-07-16T05:50:39.216Z,3.87
2017-07-16T05:53:09.447Z,3.53
2017-07-16T05:55:39.302Z,3.73
2017-07-16T05:58:09.560Z,3.67
2017-07-16T06:00:39.402Z,3.43
2017-07-16T06:03:09.264Z,3.83
2017-07-16T06:05:39.428Z,3.60
2017-07-16T06:08:09.257Z,3.23
2017-07-16T06:10:39.165Z,3.57
2017-07-16T06:13:09.483Z,3.30
2017-07-16T06:15:39.343Z,2.80
2017-07-16T06:18:09.592Z,3.27
2017-07-16T06:20:39.434Z,3.10
2017-07-16T06:23:09.289Z,3.80
2017-07-16T06:25:39.532Z,3.23
2017-07-16T06:28:09.387Z,3.03
2017-07-16T06:30:39.261Z,3.37
2017-07-16T06:33:09.486Z,3.13
2017-07-16T06:35:39.324Z,3.20
2017-07-16T06:38:09.540Z,2.90
2017-07-16T06:40:39.370Z,3.70
2017-07-16T06:43:09.217Z,3.80
2017-07-16T06:45:39.450Z,2.70
2017-07-16T06:48:09.289Z,3.40
2017-07-16T06:50:39.606Z,2.73
2017-07-16T06:53:09.458Z,3.63
2017-07-16T06:55:39.301Z,3.10
2017-07-16T06:58:09.554Z,2.83
2017-07-16T07:00:39.391Z,3.33
2017-07-16T07:03:09.247Z,3.73
2017-07-16T07:05:39.481Z,3.93
2017-07-16T07:08:09.356Z,3.07
2017-07-16T07:10:39.557Z,3.00
2017-07-16T07:13:09.398Z,3.10
2017-07-16T07:15:39.255Z,3.90
2017-07-16T07:18:09.497Z,3.30
2017-07-16T07:20:39.355Z,3.77
2017-07-16T07:23:09.725Z,4.13
2017-07-16T07:25:39.590Z,4.30
2017-07-16T07:28:09.848Z,4.17
2017-07-16T07:30:39.724Z,4.30
2017-07-16T07:33:09.996Z,4.80
2017-07-16T07:35:39.855Z,5.83
2017-07-16T07:38:10.100Z,5.33
2017-07-16T07:40:39.940Z,6.30
2017-07-16T07:43:10.274Z,6.10
2017-07-16T07:45:40.164Z,7.93
2017-07-16T07:48:10.375Z,7.00
2017-07-16T07:50:40.212Z,7.83
2017-07-16T07:53:10.402Z,7.20
2017-07-16T07:55:40.251Z,7.17
2017-07-16T07:58:10.564Z,7.70
2017-07-16T08:00:40.431Z,6.90
2017-07-16T08:03:10.681Z,6.30
2017-07-16T08:05:40.540Z,6.70
2017-07-16T08:08:10.912Z,7.53
2017-07-16T08:10:40.797Z,7.17
2017-07-16T08:13:11.063Z,9.57
2017-07-16T08:15:40.907Z,9.33
2017-07-16T08:18:11.305Z,9.70
2017-07-16T08:20:41.182Z,9.40
2017-07-16T08:23:11.420Z,11.10
2017-07-16T08:25:41.279Z,12.80
2017-07-16T08:28:11.580Z,13.60
2017-07-16T08:30:41.450Z,13.60
2017-07-16T08:33:11.348Z,12.97
2017-07-16T08:35:41.719Z,13.40
2017-07-16T08:38:11.565Z,12.53
2017-07-16T08:40:41.428Z,11.10
2017-07-16T08:43:11.672Z,11.37
2017-07-16T08:45:41.538Z,10.80
2017-07-16T08:48:11.451Z,10.40
2017-07-16T08:50:41.728Z,9.17
2017-07-16T08:53:11.567Z,8.20
2017-07-16T08:55:41.449Z,8.20
2017-07-16T08:58:11.691Z,7.83
2017-07-16T09:00:41.513Z,7.00
2017-07-16T09:03:11.381Z,6.30
2017-07-16T09:05:41.581Z,6.80
2017-07-16T09:08:11.424Z,6.23
2017-07-16T09:10:41.283Z,7.00
2017-07-16T09:13:11.512Z,7.10
2017-07-16T09:15:41.391Z,5.60
2017-07-16T09:18:11.253Z,6.20
2017-07-16T09:20:41.574Z,6.10
2017-07-16T09:23:11.423Z,5.47
2017-07-16T09:25:41.649Z,5.80
2017-07-16T09:28:11.506Z,5.90
2017-07-16T09:30:41.379Z,5.23
2017-07-16T09:33:11.673Z,6.20
2017-07-16T09:35:41.541Z,5.80
2017-07-16T09:38:11.415Z,5.93
2017-07-16T09:40:41.717Z,6.97
2017-07-16T09:43:11.609Z,6.30
2017-07-16T09:45:41.803Z,5.27
2017-07-16T09:48:11.689Z,5.63
2017-07-16T09:50:41.991Z,7.17
2017-07-16T09:53:11.844Z,6.23
2017-07-16T09:55:42.133Z,6.00
2017-07-16T09:58:11.983Z,8.33
2017-07-16T10:00:42.288Z,8.10
2017-07-16T10:03:12.143Z,8.67
2017-07-16T10:05:42.383Z,9.40
2017-07-16T10:08:12.250Z,9.07
2017-07-16T10:10:42.527Z,10.13
2017-07-16T10:13:14.091Z,11.93
2017-07-16T10:15:44.394Z,13.70
2017-07-16T10:18:14.274Z,13.73
2017-07-16T10:20:44.525Z,15.00
2017-07-16T10:23:14.398Z,13.73
2017-07-16T10:25:44.247Z,14.17
2017-07-16T10:28:14.491Z,14.53
2017-07-16T10:30:44.350Z,15.57
2017-07-16T10:33:14.760Z,16.37
2017-07-16T10:35:44.646Z,16.00
2017-07-16T10:38:14.951Z,17.23
2017-07-16T10:40:44.807Z,15.17
2017-07-16T10:43:15.194Z,16.57
2017-07-16T10:45:45.041Z,15.30
2017-07-16T10:48:15.322Z,14.20
2017-07-16T10:50:45.213Z,14.90
2017-07-16T10:53:15.458Z,14.40
2017-07-16T10:55:45.337Z,15.37
2017-07-16T10:58:15.591Z,15.27
2017-07-16T11:00:45.449Z,14.77
2017-07-16T11:03:15.842Z,14.80
2017-07-16T11:05:45.709Z,15.30
2017-07-16T11:08:15.913Z,15.50
2017-07-16T11:10:45.886Z,14.70
2017-07-16T11:13:16.091Z,14.30
2017-07-16T11:15:45.934Z,14.87
2017-07-16T11:18:16.134Z,15.20
2017-07-16T11:20:46.067Z,14.93
2017-07-16T11:23:16.351Z,15.10
2017-07-16T11:25:46.210Z,17.23
2017-07-16T11:28:16.445Z,17.67
2017-07-16T11:30:46.342Z,15.90
2017-07-16T11:33:16.627Z,18.97
2017-07-16T11:35:46.483Z,19.00
2017-07-16T11:38:16.382Z,17.47
2017-07-16T11:40:46.591Z,18.83
2017-07-16T11:43:16.454Z,18.67
2017-07-16T11:45:46.478Z,18.70
2017-07-16T11:48:16.722Z,18.67
2017-07-16T11:50:46.600Z,18.67
2017-07-16T11:53:16.780Z,20.23
2017-07-16T11:55:46.645Z,18.40
2017-07-16T11:58:16.935Z,19.77
2017-07-16T12:00:46.781Z,17.40
2017-07-16T12:03:17.033Z,18.90
2017-07-16T12:05:46.917Z,18.43
2017-07-16T12:08:17.159Z,18.93
2017-07-16T12:10:47.051Z,18.90
2017-07-16T12:13:17.339Z,21.80
2017-07-16T12:15:47.237Z,20.87
2017-07-16T12:18:17.487Z,19.63
2017-07-16T12:20:47.349Z,21.27
2017-07-16T12:23:17.236Z,21.70
2017-07-16T12:25:47.679Z,22.70
2017-07-16T12:28:17.527Z,21.40
2017-07-16T12:30:47.410Z,21.47
2017-07-16T12:33:17.654Z,21.57
2017-07-16T12:35:47.720Z,22.23
2017-07-16T12:38:18.006Z,23.47
2017-07-16T12:40:47.908Z,25.40
2017-07-16T12:43:18.379Z,24.90
2017-07-16T12:45:48.293Z,24.50
2017-07-16T12:50:51.540Z,25.43
2017-07-16T12:53:21.403Z,22.60
2017-07-16T12:55:51.353Z,23.03
2017-07-16T12:58:21.609Z,22.37
2017-07-16T13:00:51.468Z,22.33
2017-07-16T13:03:21.340Z,21.73
2017-07-16T13:05:51.641Z,22.17
2017-07-16T13:08:21.532Z,23.30
2017-07-16T13:10:51.452Z,23.40
2017-07-16T13:13:21.720Z,22.63
2017-07-16T13:15:51.593Z,23.47
2017-07-16T13:18:21.856Z,24.23
2017-07-16T13:20:51.752Z,21.17
2017-07-16T13:23:21.965Z,23.93
2017-07-16T13:25:51.847Z,23.00
2017-07-16T13:28:22.091Z,23.27
2017-07-16T13:30:51.988Z,23.70
2017-07-16T13:33:22.247Z,24.50
2017-07-16T13:35:52.167Z,24.20
2017-07-16T13:38:22.376Z,25.90
2017-07-16T13:40:52.265Z,26.30
2017-07-16T13:43:22.538Z,24.23
2017-07-16T13:45:52.410Z,25.17
2017-07-16T13:48:22.280Z,27.23
2017-07-16T13:50:52.557Z,25.23
2017-07-16T13:53:22.477Z,24.50
2017-07-16T13:55:52.418Z,23.40
2017-07-16T13:58:23.538Z,24.07
2017-07-16T14:00:53.407Z,25.03
2017-07-16T14:03:23.285Z,23.53
2017-07-16T14:05:53.560Z,23.77
2017-07-16T14:08:23.422Z,25.00
2017-07-16T14:10:53.362Z,25.93
2017-07-16T14:13:23.622Z,22.50
2017-07-16T14:15:53.547Z,23.10
2017-07-16T14:18:23.475Z,22.27
2017-07-16T14:20:53.823Z,21.37
2017-07-16T14:23:23.737Z,22.37
2017-07-16T14:25:53.929Z,21.63
2017-07-16T14:28:23.776Z,20.40
2017-07-16T14:30:54.032Z,21.10
2017-07-16T14:33:23.879Z,22.20
2017-07-16T14:35:54.204Z,20.87
2017-07-16T14:38:24.091Z,20.90
2017-07-16T14:40:54.305Z,22.10
2017-07-16T14:43:24.160Z,21.20
2017-07-16T14:45:54.433Z,22.10
2017-07-16T14:48:24.410Z,21.70
2017-07-16T14:50:54.676Z,24.13
2017-07-16T14:53:24.535Z,21.23
2017-07-16T14:55:54.381Z,23.60
2017-07-16T14:58:24.639Z,23.17
2017-07-16T15:00:54.591Z,22.40
2017-07-16T15:03:24.842Z,23.80
2017-07-16T15:05:54.721Z,25.43
2017-07-16T15:08:25.116Z,25.17
2017-07-16T15:10:54.974Z,25.93
2017-07-16T15:13:25.512Z,24.70
2017-07-16T15:15:55.395Z,25.00
2017-07-16T15:18:25.685Z,25.83
2017-07-16T15:20:55.536Z,27.37
2017-07-16T15:23:25.406Z,29.13
2017-07-16T15:25:55.708Z,29.40
2017-07-16T15:28:25.586Z,29.03
2017-07-16T15:30:55.853Z,29.20
2017-07-16T15:33:25.699Z,31.23
2017-07-16T15:35:55.916Z,33.30
2017-07-16T15:38:25.831Z,34.17
2017-07-16T15:40:56.120Z,32.03
2017-07-16T15:43:25.977Z,31.70
2017-07-16T15:45:56.350Z,34.37
2017-07-16T15:48:26.247Z,33.00
2017-07-16T15:50:56.605Z,33.00
2017-07-16T15:53:26.579Z,32.60
2017-07-16T15:55:56.823Z,35.53
2017-07-16T15:58:26.706Z,35.47
2017-07-16T16:00:56.960Z,33.97
2017-07-16T16:03:26.841Z,35.90
2017-07-16T16:05:57.105Z,35.90
2017-07-16T16:08:26.980Z,37.37
2017-07-16T16:10:57.247Z,37.60
2017-07-16T16:13:27.107Z,38.47
2017-07-16T16:15:57.484Z,40.30
2017-07-16T16:18:27.374Z,41.93
2017-07-16T16:20:57.694Z,41.13
2017-07-16T16:23:27.618Z,43.47
2017-07-16T16:25:57.866Z,43.33
2017-07-16T16:28:27.755Z,32.63
2017-07-16T16:30:57.975Z,22.40
2017-07-16T16:33:27.852Z,17.00
2017-07-16T16:35:58.096Z,13.77
2017-07-16T16:38:27.942Z,13.13
2017-07-16T16:40:58.234Z,10.50
2017-07-16T16:43:28.183Z,9.53
2017-07-16T16:45:58.363Z,8.47
2017-07-16T16:48:28.219Z,8.80
2017-07-16T16:50:58.435Z,8.77
2017-07-16T16:53:28.282Z,7.53
2017-07-16T16:55:58.599Z,6.20
2017-07-16T16:58:28.463Z,6.20
2017-07-16T17:00:58.352Z,7.83
2017-07-16T17:03:28.611Z,5.07
2017-07-16T17:05:58.479Z,5.23
2017-07-16T17:08:28.347Z,5.50
2017-07-16T17:10:58.657Z,5.40
2017-07-16T17:13:28.575Z,5.33
2017-07-16T17:15:58.866Z,4.53
2017-07-16T17:18:28.764Z,4.67
2017-07-16T17:20:58.998Z,5.17
2017-07-16T17:23:28.858Z,5.90
2017-07-16T17:25:59.239Z,5.57
2017-07-16T17:28:29.099Z,4.27
2017-07-16T17:30:59.603Z,3.83
2017-07-16T17:33:29.521Z,4.53
2017-07-16T17:35:59.865Z,4.07
2017-07-16T17:38:29.773Z,4.00
2017-07-16T17:41:00.114Z,4.23
2017-07-16T17:43:30.867Z,4.13
2017-07-16T17:46:01.106Z,4.00
2017-07-16T17:48:31.149Z,3.80
2017-07-16T17:51:01.557Z,3.50
2017-07-16T17:53:31.464Z,3.33
2017-07-16T17:56:01.941Z,3.07
2017-07-16T17:58:31.836Z,3.03
2017-07-16T18:01:02.275Z,3.27
2017-07-16T18:03:32.155Z,3.90
2017-07-16T18:06:02.505Z,3.00
2017-07-16T18:08:32.564Z,3.87
2017-07-16T18:11:02.941Z,3.53
2017-07-16T18:13:32.835Z,3.80
2017-07-16T18:16:03.305Z,2.70
2017-07-16T18:18:33.241Z,3.50
2017-07-16T18:21:03.499Z,3.60
2017-07-16T18:23:33.483Z,3.40
2017-07-16T18:26:03.740Z,3.30
2017-07-16T18:28:33.843Z,3.80
2017-07-16T18:31:04.735Z,3.60
2017-07-16T18:33:34.659Z,3.20
2017-07-16T18:36:04.964Z,5.10
2017-07-16T18:38:34.849Z,3.90
2017-07-16T18:41:05.188Z,2.77
2017-07-16T18:43:35.251Z,3.70
2017-07-16T18:46:05.641Z,3.23
2017-07-16T18:48:35.860Z,3.50
2017-07-16T18:51:06.146Z,3.03
2017-07-16T18:53:36.025Z,3.27
2017-07-16T18:56:06.411Z,3.33
2017-07-16T18:58:36.431Z,3.10
2017-07-16T19:01:06.752Z,3.80
2017-07-16T19:03:36.689Z,3.13
2017-07-16T19:06:07.065Z,3.37
2017-07-16T19:08:37.053Z,3.50
2017-07-16T19:11:07.266Z,3.53
2017-07-16T19:13:37.185Z,3.17
2017-07-16T19:16:07.534Z,3.37
2017-07-16T19:18:37.431Z,12.13
2017-07-16T19:21:07.707Z,4.30
2017-07-16T19:23:37.759Z,4.20
2017-07-16T19:26:08.020Z,4.07
2017-07-16T19:28:37.891Z,5.33
2017-07-16T19:31:08.133Z,4.57
2017-07-16T19:33:38.049Z,4.50
2017-07-16T19:36:08.407Z,4.70
2017-07-16T19:38:38.301Z,4.10
2017-07-16T19:41:08.699Z,4.70
2017-07-16T19:43:38.688Z,4.47
2017-07-16T19:46:09.098Z,3.93
2017-07-16T19:48:38.977Z,4.43
2017-07-16T19:51:09.442Z,4.93
2017-07-16T19:53:39.370Z,3.93
2017-07-16T19:56:09.729Z,4.60
2017-07-16T19:58:39.635Z,3.77
2017-07-16T20:01:09.895Z,4.77
2017-07-16T20:03:39.814Z,4.73
2017-07-16T20:06:10.148Z,4.97
2017-07-16T20:08:40.098Z,4.40
2017-07-16T20:11:10.423Z,5.30
2017-07-16T20:13:40.346Z,4.93
2017-07-16T20:16:10.926Z,5.27
2017-07-16T20:18:40.949Z,4.90
2017-07-16T20:21:11.317Z,5.37
2017-07-16T20:23:41.218Z,5.13
2017-07-16T20:26:11.703Z,4.97
2017-07-16T20:28:41.602Z,6.30
2017-07-16T20:31:11.886Z,5.00
2017-07-16T20:33:41.795Z,5.97
2017-07-16T20:36:12.096Z,4.87
2017-07-16T20:38:42.007Z,5.30
2017-07-16T20:41:12.288Z,5.57
2017-07-16T20:43:42.180Z,4.90
2017-07-16T20:46:12.683Z,4.50
2017-07-16T20:48:42.572Z,5.23
2017-07-16T20:51:12.862Z,4.87
2017-07-16T20:53:42.787Z,5.07
2017-07-16T20:56:13.248Z,4.37
2017-07-16T20:58:43.128Z,5.10
2017-07-16T21:01:13.417Z,5.27
2017-07-16T21:03:43.406Z,5.23
2017-07-16T21:06:13.697Z,5.07
2017-07-16T21:08:43.565Z,5.80
2017-07-16T21:11:13.933Z,6.03
2017-07-16T21:13:47.631Z,6.37
2017-07-16T21:16:18.016Z,5.93
2017-07-16T21:18:47.920Z,6.00
2017-07-16T21:21:18.166Z,6.03
2017-07-16T21:23:48.049Z,6.27
2017-07-16T21:26:18.285Z,5.83
2017-07-16T21:28:48.184Z,6.20
2017-07-16T21:31:18.427Z,5.93
2017-07-16T21:33:48.277Z,5.90
2017-07-16T21:36:18.492Z,6.37
2017-07-16T21:38:48.355Z,6.40
2017-07-16T21:41:18.238Z,6.33
2017-07-16T21:43:48.567Z,6.40
2017-07-16T21:46:18.411Z,6.80
2017-07-16T21:48:48.634Z,6.90
2017-07-16T21:51:18.485Z,6.60
2017-07-16T21:53:48.407Z,7.17
2017-07-16T21:56:18.635Z,7.23
2017-07-16T21:58:48.483Z,7.33
2017-07-16T22:01:18.375Z,7.13
2017-07-16T22:03:48.708Z,6.20
2017-07-16T22:06:18.560Z,5.63
2017-07-16T22:08:48.446Z,6.60
2017-07-16T22:11:18.717Z,8.47
2017-07-16T22:13:48.595Z,6.60
2017-07-16T22:16:18.844Z,7.10
2017-07-16T22:18:48.981Z,6.63
2017-07-16T22:21:19.210Z,6.70
2017-07-16T22:23:49.057Z,7.70
2017-07-16T22:26:19.415Z,6.40
2017-07-16T22:28:49.267Z,8.80
2017-07-16T22:31:19.553Z,6.80
2017-07-16T22:33:49.446Z,7.43
2017-07-16T22:36:19.331Z,7.77
2017-07-16T22:38:49.555Z,6.90
2017-07-16T22:41:19.425Z,6.87
2017-07-16T22:43:49.302Z,7.10
2017-07-16T22:46:19.524Z,8.27
2017-07-16T22:48:49.458Z,7.10
2017-07-16T22:51:19.335Z,8.40
2017-07-16T22:53:49.577Z,8.03
2017-07-16T22:56:19.452Z,9.60
2017-07-16T22:58:49.337Z,7.80
2017-07-16T23:01:19.565Z,8.83
2017-07-16T23:03:49.423Z,8.23
2017-07-16T23:06:19.309Z,8.17
2017-07-16T23:08:49.571Z,7.50
2017-07-16T23:11:19.454Z,7.97
2017-07-16T23:13:49.345Z,7.90
2017-07-16T23:16:19.522Z,8.07
2017-07-16T23:18:49.387Z,8.50
2017-07-16T23:21:19.254Z,8.00
2017-07-16T23:23:49.433Z,8.40
2017-07-16T23:26:19.268Z,8.30
2017-07-16T23:28:49.631Z,9.23
2017-07-16T23:31:19.494Z,9.70
2017-07-16T23:33:49.725Z,9.03
2017-07-16T23:36:19.598Z,9.13
2017-07-16T23:38:49.533Z,9.07
2017-07-16T23:41:19.814Z,9.10
2017-07-16T23:43:49.656Z,8.63
2017-07-16T23:46:19.872Z,8.80
2017-07-16T23:48:49.714Z,8.07
2017-07-16T23:51:20.044Z,9.00
2017-07-16T23:53:49.917Z,10.40
2017-07-16T23:56:20.184Z,9.90
2017-07-16T23:58:50.057Z,9.07
